Time;durP1;ratioP1;P1;durP2;ratioP2;P2;SDS_P1;SDS_P2;PMS_P1;PMS_P2;Temp;Humidity;BMP_temperature;BMP_pressure;BME280_temperature;BME280_humidity;BME280_pressure;Samples;Min_cycle;Max_cycle;Signal;HPM_P1;HPM_P2
2023/07/17 00:00:29;;;;;;;7.55;3.47;;;;;;;17.91;74.30;101389.53;4965736;28;20051;-69
2023/07/17 00:03:08;;;;;;;6.05;3.70;;;;;;;17.90;74.93;101398.50;4960901;28;20031;-69
2023/07/17 00:05:35;;;;;;;8.38;3.80;;;;;;;17.91;75.34;101402.88;4966652;28;20609;-68
2023/07/17 00:08:05;;;;;;;6.43;3.40;;;;;;;17.90;74.86;101402.00;4964745;28;20038;-69
2023/07/17 00:10:32;;;;;;;7.80;3.15;;;;;;;17.91;74.94;101398.41;4962388;28;20046;-68
2023/07/17 00:12:59;;;;;;;9.98;3.60;;;;;;;17.91;74.64;101394.88;4967700;28;20046;-68
2023/07/17 00:15:26;;;;;;;6.40;3.70;;;;;;;17.89;75.19;101399.44;4969633;28;20226;-68
2023/07/17 00:17:54;;;;;;;7.20;3.53;;;;;;;17.88;75.37;101403.91;4967648;28;20420;-69
2023/07/17 00:20:21;;;;;;;7.50;3.70;;;;;;;17.87;75.45;101399.50;4969626;28;20050;-69
2023/07/17 00:22:48;;;;;;;7.40;3.63;;;;;;;17.83;75.07;101405.97;4965647;28;20046;-69
2023/07/17 00:25:15;;;;;;;6.80;3.45;;;;;;;17.77;75.03;101396.47;4960286;28;20039;-69
2023/07/17 00:27:42;;;;;;;7.57;3.42;;;;;;;17.75;74.74;101390.34;4963871;28;20143;-69
2023/07/17 00:30:09;;;;;;;8.90;3.83;;;;;;;17.71;75.16;101396.78;4956220;28;20046;-68
2023/07/17 00:32:37;;;;;;;6.03;3.58;;;;;;;17.66;75.63;101394.34;4962649;28;20045;-68
2023/07/17 00:35:08;;;;;;;6.65;3.70;;;;;;;17.63;75.74;101393.63;4978998;28;20126;-69
2023/07/17 00:37:35;;;;;;;6.05;3.35;;;;;;;17.56;75.61;101398.41;4963566;28;20058;-69
2023/07/17 00:40:04;;;;;;;7.55;3.80;;;;;;;17.50;75.52;101396.94;4962719;28;20291;-69
2023/07/17 00:42:31;;;;;;;5.35;3.70;;;;;;;17.46;75.77;101383.84;4965133;28;20447;-68
2023/07/17 00:44:58;;;;;;;7.00;3.40;;;;;;;17.42;76.51;101392.94;4966597;28;20043;-69
2023/07/17 00:47:27;;;;;;;7.75;3.75;;;;;;;17.37;76.32;101402.00;4962669;28;20034;-69
2023/07/17 00:49:55;;;;;;;7.90;3.63;;;;;;;17.39;76.34;101415.28;4953760;28;20038;-68
2023/07/17 00:52:23;;;;;;;7.50;3.40;;;;;;;17.42;76.31;101409.78;4964754;28;20089;-69
2023/07/17 00:54:51;;;;;;;7.22;3.50;;;;;;;17.44;76.30;101412.38;4963537;28;20057;-69
2023/07/17 00:57:19;;;;;;;6.75;3.80;;;;;;;17.40;76.37;101401.00;4964052;28;20059;-69
2023/07/17 00:59:48;;;;;;;5.95;3.70;;;;;;;17.37;76.46;101410.00;4965101;28;20093;-69
2023/07/17 01:02:15;;;;;;;7.82;3.60;;;;;;;17.35;76.59;101414.53;4978386;28;20053;-70
2023/07/17 01:04:47;;;;;;;6.85;3.70;;;;;;;17.35;76.75;101422.53;4992733;28;20459;-68
2023/07/17 01:07:15;;;;;;;6.82;3.75;;;;;;;17.33;76.67;101427.13;4963625;28;20070;-68
2023/07/17 01:09:43;;;;;;;9.00;4.10;;;;;;;17.26;76.70;101425.66;4962518;28;20412;-69
2023/07/17 01:12:10;;;;;;;7.30;3.80;;;;;;;17.21;76.99;101425.03;4964667;28;20052;-69
2023/07/17 01:14:39;;;;;;;7.05;4.10;;;;;;;17.14;77.80;101432.47;4963205;28;20043;-69
2023/07/17 01:17:06;;;;;;;7.30;4.25;;;;;;;17.09;77.81;101426.50;4953715;28;20503;-70
2023/07/17 01:19:34;;;;;;;6.78;3.95;;;;;;;17.08;78.29;101425.63;4960258;28;20043;-70
2023/07/17 01:22:29;;;;;;;8.60;3.85;;;;;;;17.08;79.00;101428.28;4992824;28;20118;-70
2023/07/17 01:24:57;;;;;;;8.38;3.80;;;;;;;17.06;79.08;101426.66;4957093;28;20051;-70
2023/07/17 01:27:24;;;;;;;6.20;3.83;;;;;;;17.04;79.28;101429.38;4963109;28;20039;-68
2023/07/17 01:29:51;;;;;;;6.40;3.33;;;;;;;17.04;79.23;101440.03;4964477;28;20491;-68
2023/07/17 01:32:20;;;;;;;7.30;3.92;;;;;;;17.05;79.48;101428.44;4962799;28;20240;-68
2023/07/17 01:34:47;;;;;;;8.32;4.10;;;;;;;17.04;79.78;101417.88;4960820;28;20554;-68
2023/07/17 01:37:15;;;;;;;6.75;3.67;;;;;;;17.04;79.84;101413.38;4975747;28;20057;-70
2023/07/17 01:39:42;;;;;;;6.95;3.92;;;;;;;17.04;79.63;101420.53;4961676;28;20076;-69
2023/07/17 01:42:09;;;;;;;7.50;3.92;;;;;;;17.02;79.67;101417.94;4977617;28;20035;-70
2023/07/17 01:44:36;;;;;;;7.28;3.92;;;;;;;17.03;79.84;101424.13;4994963;28;20078;-69
2023/07/17 01:47:05;;;;;;;8.38;3.50;;;;;;;17.03;79.70;101427.66;4964679;28;20046;-69
2023/07/17 01:49:33;;;;;;;7.18;3.85;;;;;;;17.02;79.63;101433.06;4964961;28;20039;-69
2023/07/17 01:52:00;;;;;;;7.05;3.38;;;;;;;17.00;80.19;101432.25;4962126;28;20061;-69
2023/07/17 01:54:27;;;;;;;6.47;3.47;;;;;;;16.98;79.41;101429.69;4958583;28;20058;-70
2023/07/17 01:56:54;;;;;;;7.60;3.60;;;;;;;16.95;79.32;101440.47;4962161;28;20109;-70
2023/07/17 01:59:21;;;;;;;6.60;3.22;;;;;;;16.91;79.66;101430.88;4959799;28;20047;-70
2023/07/17 02:01:49;;;;;;;5.93;3.38;;;;;;;16.86;79.72;101432.88;4972796;28;20038;-70
2023/07/17 02:04:16;;;;;;;6.72;3.50;;;;;;;16.81;79.80;101437.59;4963207;28;20050;-70
2023/07/17 02:06:43;;;;;;;6.53;3.30;;;;;;;16.75;79.83;101433.41;4958912;28;20047;-70
2023/07/17 02:09:10;;;;;;;7.57;3.30;;;;;;;16.73;79.71;101428.16;4962889;28;20126;-70
2023/07/17 02:11:37;;;;;;;11.43;4.20;;;;;;;16.69;80.19;101429.22;4961715;28;20262;-70
2023/07/17 02:14:04;;;;;;;6.03;3.15;;;;;;;16.66;80.11;101428.50;4964808;28;20121;-70
2023/07/17 02:16:32;;;;;;;8.15;3.45;;;;;;;16.61;80.39;101420.75;4980707;28;20042;-70
2023/07/17 02:18:59;;;;;;;6.97;3.60;;;;;;;16.57;80.56;101428.00;4967147;28;20047;-70
2023/07/17 02:21:27;;;;;;;8.80;3.45;;;;;;;16.56;80.80;101428.06;4967171;28;20272;-70
2023/07/17 02:23:54;;;;;;;6.22;3.40;;;;;;;16.56;81.02;101425.41;4983485;28;20459;-70
2023/07/17 02:26:22;;;;;;;7.05;3.42;;;;;;;16.54;81.32;101422.81;4965231;28;20291;-70
2023/07/17 02:28:49;;;;;;;6.35;3.45;;;;;;;16.56;81.23;101430.72;4978584;28;20098;-70
2023/07/17 02:31:17;;;;;;;6.38;3.00;;;;;;;16.60;81.41;101425.19;4966285;28;20461;-69
2023/07/17 02:33:45;;;;;;;7.20;3.10;;;;;;;16.62;80.67;101427.81;4979146;28;20054;-70
2023/07/17 02:36:12;;;;;;;7.22;3.50;;;;;;;16.63;80.00;101423.31;4966350;28;20550;-70
2023/07/17 02:38:43;;;;;;;7.43;3.30;;;;;;;16.59;80.24;101422.59;4966924;28;20047;-70
2023/07/17 02:41:14;;;;;;;5.47;2.80;;;;;;;16.58;80.21;101429.72;4995986;28;20381;-69
2023/07/17 02:43:41;;;;;;;7.30;3.13;;;;;;;16.58;80.23;101431.53;4967092;28;20045;-69
2023/07/17 02:46:08;;;;;;;7.25;3.30;;;;;;;16.55;80.14;101435.19;4967347;28;20038;-70
2023/07/17 02:48:35;;;;;;;6.78;3.30;;;;;;;16.51;80.17;101444.25;4964771;28;20511;-70
2023/07/17 02:51:03;;;;;;;6.85;3.55;;;;;;;16.46;80.43;101446.28;4965116;28;20066;-69
2023/07/17 02:53:30;;;;;;;7.57;3.42;;;;;;;16.41;80.41;101450.91;4969088;28;20052;-70
2023/07/17 02:55:57;;;;;;;5.57;3.33;;;;;;;16.36;80.78;101451.13;4965397;28;20042;-69
2023/07/17 02:58:24;;;;;;;5.82;3.20;;;;;;;16.31;80.79;101453.16;4998034;28;20358;-70
2023/07/17 03:00:51;;;;;;;8.48;2.90;;;;;;;16.27;81.03;101462.19;4965987;28;20042;-70
2023/07/17 03:03:18;;;;;;;7.07;3.08;;;;;;;16.27;80.79;101462.19;4956337;28;20080;-70
2023/07/17 03:05:45;;;;;;;7.32;3.45;;;;;;;16.22;81.10;101459.72;4960891;28;20358;-70
2023/07/17 03:08:13;;;;;;;6.82;3.25;;;;;;;16.18;81.09;101466.09;4996579;28;20120;-69
2023/07/17 03:10:40;;;;;;;6.07;3.30;;;;;;;16.14;81.19;101468.03;4963939;28;20129;-69
2023/07/17 03:13:08;;;;;;;9.18;2.88;;;;;;;16.11;81.39;101464.66;4967132;28;20459;-69
2023/07/17 03:15:36;;;;;;;8.20;2.97;;;;;;;16.08;81.50;101467.44;4981742;28;20129;-69
2023/07/17 03:18:03;;;;;;;6.55;2.50;;;;;;;16.03;81.65;101469.44;4997340;28;20046;-71
2023/07/17 03:20:30;;;;;;;7.03;2.83;;;;;;;15.99;81.57;101472.22;4980414;28;20499;-71
2023/07/17 03:22:57;;;;;;;6.90;2.88;;;;;;;15.96;81.52;101466.19;4981998;28;20043;-70
2023/07/17 03:25:24;;;;;;;7.43;2.80;;;;;;;15.93;81.95;101468.97;4997810;28;20134;-70
2023/07/17 03:27:51;;;;;;;9.00;2.65;;;;;;;15.88;82.02;101469.16;4994695;28;20042;-70
2023/07/17 03:30:19;;;;;;;8.25;2.50;;;;;;;15.83;82.11;101468.47;4978671;28;20407;-70
2023/07/17 03:32:46;;;;;;;6.43;3.13;;;;;;;15.79;82.04;101474.84;4968788;28;20054;-70
2023/07/17 03:35:14;;;;;;;5.97;2.47;;;;;;;15.77;81.89;101472.25;4961993;28;20062;-70
2023/07/17 03:37:41;;;;;;;6.05;2.10;;;;;;;15.74;82.10;101464.41;4996024;28;20219;-70
2023/07/17 03:40:10;;;;;;;7.10;2.40;;;;;;;15.74;82.24;101466.22;4968721;28;20035;-70
2023/07/17 03:42:38;;;;;;;6.43;2.42;;;;;;;15.72;82.35;101481.34;4964637;28;20149;-71
2023/07/17 03:45:05;;;;;;;7.85;2.75;;;;;;;15.71;82.18;101479.63;4963783;28;20134;-71
2023/07/17 03:47:36;;;;;;;6.10;2.58;;;;;;;15.69;82.22;101485.00;4979778;28;20054;-69
2023/07/17 03:50:04;;;;;;;6.07;2.50;;;;;;;15.67;82.28;101485.06;4963314;28;20051;-70
2023/07/17 03:52:31;;;;;;;4.95;2.58;;;;;;;15.65;82.50;101478.97;4966585;28;20230;-70
2023/07/17 03:54:58;;;;;;;6.82;2.70;;;;;;;15.63;82.15;101491.44;4980670;28;20047;-70
2023/07/17 03:57:26;;;;;;;5.75;2.60;;;;;;;15.62;81.93;101491.50;4994945;28;20441;-70
2023/07/17 03:59:55;;;;;;;7.10;2.60;;;;;;;15.60;82.17;101485.41;4961615;28;20054;-70
2023/07/17 04:02:27;;;;;;;7.13;2.53;;;;;;;15.60;82.29;101486.25;4966404;28;20415;-70
2023/07/17 04:04:56;;;;;;;6.38;2.70;;;;;;;15.63;82.20;101490.56;4964262;28;20043;-70
2023/07/17 04:07:23;;;;;;;12.57;2.83;;;;;;;15.68;82.05;101493.91;4964834;28;20054;-70
2023/07/17 04:09:51;;;;;;;8.10;3.05;;;;;;;15.87;81.31;101499.38;4965572;28;20046;-70
2023/07/17 04:12:18;;;;;;;7.72;2.70;;;;;;;15.81;81.48;101503.13;4963925;28;20051;-70
2023/07/17 04:14:45;;;;;;;12.73;3.40;;;;;;;15.78;81.51;101499.69;4978527;28;20054;-70
2023/07/17 04:17:12;;;;;;;12.15;2.75;;;;;;;15.78;81.52;101505.88;4964976;28;20407;-70
2023/07/17 04:19:40;;;;;;;11.65;3.15;;;;;;;15.79;81.21;101506.75;4965042;28;20074;-70
2023/07/17 04:22:08;;;;;;;9.40;2.95;;;;;;;15.81;81.55;101513.75;4979011;28;20526;-69
2023/07/17 04:24:35;;;;;;;7.70;2.67;;;;;;;15.79;81.40;101504.97;4997856;28;20038;-69
2023/07/17 04:27:03;;;;;;;8.73;3.00;;;;;;;15.82;81.64;101510.13;4964191;28;20038;-70
2023/07/17 04:29:30;;;;;;;10.10;2.85;;;;;;;15.83;81.12;101508.34;4964728;28;20050;-70
2023/07/17 04:32:01;;;;;;;5.95;3.00;;;;;;;15.84;81.53;101516.28;4994547;28;20606;-70
2023/07/17 04:34:30;;;;;;;8.38;2.83;;;;;;;15.91;81.24;101516.06;4952605;28;20043;-70
2023/07/17 04:36:58;;;;;;;7.18;2.55;;;;;;;15.93;81.13;101519.47;4958830;28;20481;-70
2023/07/17 04:39:25;;;;;;;9.88;2.80;;;;;;;15.97;81.04;101523.75;4974006;28;20274;-70
2023/07/17 04:41:53;;;;;;;8.38;2.78;;;;;;;16.02;80.86;101520.91;4965166;28;20565;-70
2023/07/17 04:44:22;;;;;;;11.63;3.20;;;;;;;16.06;80.63;101534.00;4977733;28;20054;-71
2023/07/17 04:46:49;;;;;;;12.05;2.88;;;;;;;16.13;80.27;101523.97;4995929;28;20080;-73
2023/07/17 04:49:17;;;;;;;7.60;3.00;;;;;;;16.31;80.00;101524.97;4995792;28;20039;-72
2023/07/17 04:51:44;;;;;;;13.18;2.85;;;;;;;16.42;79.54;101528.03;4981843;28;20527;-72
2023/07/17 04:54:12;;;;;;;8.43;3.00;;;;;;;16.63;78.90;101532.47;4964566;28;20043;-72
2023/07/17 04:56:39;;;;;;;11.90;3.10;;;;;;;17.36;77.13;101544.19;4963071;28;20031;-72
2023/07/17 04:59:12;;;;;;;6.82;2.58;;;;;;;18.18;73.90;101546.47;4959743;28;20042;-72
2023/07/17 05:01:40;;;;;;;11.95;3.15;;;;;;;18.13;72.67;101536.03;4978419;28;20129;-72
2023/07/17 05:04:07;;;;;;;15.73;3.00;;;;;;;17.88;73.36;101539.91;4962481;28;20038;-73
2023/07/17 05:06:35;;;;;;;12.73;3.20;;;;;;;17.65;73.97;101536.56;4975097;28;20113;-72
2023/07/17 05:09:03;;;;;;;13.57;3.40;;;;;;;17.49;74.22;101544.50;4977776;28;20097;-72
2023/07/17 05:11:32;;;;;;;10.75;3.10;;;;;;;17.36;74.61;101538.84;4990261;28;20046;-72
2023/07/17 05:13:59;;;;;;;12.77;3.20;;;;;;;17.32;74.96;101536.41;4961489;28;20085;-72
2023/07/17 05:16:26;;;;;;;9.68;3.08;;;;;;;17.63;73.58;101533.16;4964327;28;20042;-72
2023/07/17 05:18:54;;;;;;;13.85;3.53;;;;;;;17.98;71.54;101538.53;4993173;28;20503;-72
2023/07/17 05:21:21;;;;;;;10.43;3.50;;;;;;;18.00;72.27;101544.66;4981543;28;20050;-72
2023/07/17 05:23:49;;;;;;;9.55;3.45;;;;;;;18.70;70.24;101543.75;4964007;28;20046;-72
2023/07/17 05:26:19;;;;;;;9.15;3.78;;;;;;;20.39;64.41;101555.66;4978954;28;20043;-72
2023/07/17 05:28:51;;;;;;;10.82;3.70;;;;;;;21.20;61.44;101545.38;4961167;28;20043;-72
2023/07/17 05:31:18;;;;;;;11.35;3.72;;;;;;;20.63;61.68;101552.44;4966553;28;20042;-73
2023/07/17 05:33:46;;;;;;;8.48;3.47;;;;;;;21.46;60.72;101551.72;4964598;28;20535;-72
2023/07/17 05:36:14;;;;;;;11.07;3.70;;;;;;;23.37;56.52;101546.75;4978177;28;20117;-72
2023/07/17 05:38:43;;;;;;;8.60;3.67;;;;;;;24.81;49.14;101550.19;4963351;28;20713;-72
2023/07/17 05:41:12;;;;;;;9.10;3.70;;;;;;;25.87;47.23;101553.28;4977801;28;20047;-72
2023/07/17 05:43:41;;;;;;;9.98;3.60;;;;;;;26.87;45.37;101555.63;4959793;28;20055;-73
2023/07/17 05:46:14;;;;;;;9.67;3.67;;;;;;;27.70;42.53;101556.28;4976683;28;20054;-73
2023/07/17 05:48:41;;;;;;;17.08;4.07;;;;;;;28.35;40.37;101560.25;4963206;28;20415;-72
2023/07/17 05:51:09;;;;;;;6.88;3.25;;;;;;;28.84;39.90;101559.28;4965695;28;20102;-72
2023/07/17 05:53:36;;;;;;;7.05;3.28;;;;;;;29.35;38.83;101570.59;4966896;28;20035;-73
2023/07/17 05:56:03;;;;;;;9.18;3.45;;;;;;;29.67;36.35;101569.22;4967561;28;20492;-73
2023/07/17 05:58:33;;;;;;;7.53;3.20;;;;;;;29.74;36.47;101557.59;4966753;28;20078;-73
2023/07/17 06:01:01;;;;;;;11.13;3.72;;;;;;;30.10;37.02;101564.88;4951099;28;20065;-72
2023/07/17 06:03:29;;;;;;;10.00;3.60;;;;;;;30.44;36.12;101563.25;4985178;28;20057;-72
2023/07/17 06:05:56;;;;;;;7.25;3.67;;;;;;;30.76;34.94;101565.31;4969407;28;20090;-73
2023/07/17 06:08:23;;;;;;;8.00;3.78;;;;;;;30.94;33.85;101575.25;4970329;28;20043;-73
2023/07/17 06:10:51;;;;;;;9.35;3.78;;;;;;;30.67;32.83;101575.31;4971463;28;20061;-72
2023/07/17 06:13:20;;;;;;;12.73;4.25;;;;;;;30.35;33.09;101565.91;4968870;28;20054;-72
2023/07/17 06:15:47;;;;;;;15.27;4.32;;;;;;;30.14;34.57;101576.28;4968842;28;20042;-72
2023/07/17 06:18:14;;;;;;;9.90;4.03;;;;;;;29.44;34.89;101583.25;4970881;28;20140;-73
2023/07/17 06:20:42;;;;;;;12.63;4.03;;;;;;;27.11;37.61;101585.91;4967436;28;20097;-72
2023/07/17 06:23:09;;;;;;;10.43;4.22;;;;;;;24.73;42.19;101584.97;4969950;28;20050;-71
2023/07/17 06:25:38;;;;;;;13.85;4.65;;;;;;;23.15;45.94;101587.78;4970426;28;20092;-72
2023/07/17 06:28:07;;;;;;;9.82;4.15;;;;;;;22.05;49.49;101593.50;4971085;28;20134;-72
2023/07/17 06:30:34;;;;;;;10.25;4.60;;;;;;;21.23;52.29;101588.91;4968937;28;20802;-70
2023/07/17 06:33:01;;;;;;;16.10;4.75;;;;;;;20.62;54.29;101588.19;4968955;28;20073;-70
2023/07/17 06:35:28;;;;;;;14.30;4.85;;;;;;;20.17;55.82;101602.47;4971587;28;20442;-70
2023/07/17 06:37:55;;;;;;;11.60;4.80;;;;;;;19.89;57.40;101602.34;4969387;28;20046;-70
2023/07/17 06:40:22;;;;;;;13.43;5.03;;;;;;;19.65;58.15;101618.81;4967290;28;20101;-70
2023/07/17 06:42:49;;;;;;;20.27;4.72;;;;;;;19.43;59.00;101612.00;4967596;28;20047;-70
2023/07/17 06:45:17;;;;;;;11.27;4.70;;;;;;;19.31;59.87;101612.66;4968876;28;20043;-70
2023/07/17 06:47:44;;;;;;;12.73;5.30;;;;;;;19.24;60.69;101618.34;4967093;28;20117;-70
2023/07/17 06:50:11;;;;;;;27.23;5.95;;;;;;;19.18;60.38;101616.00;4965751;28;20046;-70
2023/07/17 06:52:38;;;;;;;12.50;4.90;;;;;;;19.09;61.11;101612.03;4968239;28;20134;-71
2023/07/17 06:55:08;;;;;;;15.25;4.93;;;;;;;19.07;61.08;101616.59;4968247;28;20542;-70
2023/07/17 06:57:35;;;;;;;11.45;4.32;;;;;;;19.02;61.78;101615.13;4969221;28;20098;-71
2023/07/17 07:00:05;;;;;;;16.33;4.65;;;;;;;19.01;61.90;101621.41;4967318;28;20459;-71
2023/07/17 07:02:32;;;;;;;12.75;4.10;;;;;;;19.01;61.95;101622.28;4958631;28;20680;-70
2023/07/17 07:05:00;;;;;;;12.40;4.85;;;;;;;19.05;61.84;101628.31;4966574;28;20039;-71
2023/07/17 07:07:27;;;;;;;17.40;4.88;;;;;;;19.03;61.75;101628.38;4968409;28;20499;-71
2023/07/17 07:09:55;;;;;;;20.25;5.20;;;;;;;19.05;61.79;101631.84;4971635;28;20045;-70
2023/07/17 07:12:22;;;;;;;12.48;4.20;;;;;;;19.09;61.68;101644.09;4967864;28;20074;-71
2023/07/17 07:14:50;;;;;;;18.08;5.40;;;;;;;19.07;61.70;101639.78;4966575;28;20045;-71
2023/07/17 07:17:17;;;;;;;13.95;5.22;;;;;;;19.07;61.38;101631.78;4969102;28;20038;-71
2023/07/17 07:19:44;;;;;;;14.23;4.70;;;;;;;19.07;61.55;101647.81;4971461;28;20065;-71
2023/07/17 07:22:11;;;;;;;9.90;5.00;;;;;;;19.13;61.89;101638.59;4973678;28;20134;-71
2023/07/17 07:24:41;;;;;;;16.17;5.00;;;;;;;19.30;61.51;101651.03;4968150;28;20050;-71
2023/07/17 07:27:08;;;;;;;17.10;4.82;;;;;;;19.42;61.64;101647.69;4967478;28;20101;-71
2023/07/17 07:29:36;;;;;;;9.10;4.45;;;;;;;19.46;60.92;101651.06;4966522;28;20050;-71
2023/07/17 07:32:04;;;;;;;21.00;6.10;;;;;;;19.48;60.72;101652.72;4968343;28;20050;-71
2023/07/17 07:34:32;;;;;;;17.27;4.93;;;;;;;19.43;61.45;101649.41;4956383;28;20039;-70
2023/07/17 07:36:59;;;;;;;15.13;5.10;;;;;;;19.59;61.04;101654.78;4948545;28;20039;-70
2023/07/17 07:39:26;;;;;;;13.25;4.28;;;;;;;19.72;60.51;101649.59;4960682;28;20058;-70
2023/07/17 07:41:53;;;;;;;14.57;4.72;;;;;;;19.97;59.97;101653.59;4967472;28;20145;-70
2023/07/17 07:44:20;;;;;;;12.57;4.18;;;;;;;19.99;60.06;101655.25;4968315;28;20137;-70
2023/07/17 07:46:48;;;;;;;19.52;5.05;;;;;;;20.10;59.47;101676.03;4969401;28;20042;-71
2023/07/17 07:49:15;;;;;;;13.93;4.43;;;;;;;20.03;59.58;101671.97;4967412;28;20530;-71
2023/07/17 07:51:43;;;;;;;10.50;4.13;;;;;;;20.04;59.77;101672.84;4966447;28;20476;-71
2023/07/17 07:54:10;;;;;;;16.60;4.22;;;;;;;19.95;60.06;101680.44;4974738;28;20057;-70
2023/07/17 07:56:48;;;;;;;18.17;4.53;;;;;;;19.71;60.06;101679.97;4967759;28;20129;-70
2023/07/17 07:59:15;;;;;;;9.32;3.60;;;;;;;19.60;59.41;101674.34;4974123;28;20081;-70
2023/07/17 08:01:42;;;;;;;12.50;4.53;;;;;;;19.55;60.55;101680.84;4967409;28;20055;-70
2023/07/17 08:04:09;;;;;;;19.10;4.38;;;;;;;19.62;60.11;101683.16;4961853;28;20042;-70
2023/07/17 08:06:36;;;;;;;9.20;3.38;;;;;;;19.78;60.14;101677.81;4968450;28;20043;-70
2023/07/17 08:09:03;;;;;;;12.63;3.90;;;;;;;20.05;59.69;101682.59;4968479;28;20050;-70
2023/07/17 08:11:31;;;;;;;10.73;3.83;;;;;;;20.30;59.99;101682.03;4968512;28;20042;-70
2023/07/17 08:13:58;;;;;;;15.43;3.97;;;;;;;20.56;59.00;101679.66;4967979;28;20467;-70
2023/07/17 08:16:25;;;;;;;25.42;4.90;;;;;;;20.81;58.25;101686.25;4967231;28;20039;-70
2023/07/17 08:18:52;;;;;;;7.03;2.83;;;;;;;20.92;56.29;101692.69;4967559;28;20043;-70
2023/07/17 08:21:19;;;;;;;12.63;3.92;;;;;;;20.79;56.58;101697.06;4971222;28;20053;-70
2023/07/17 08:23:46;;;;;;;17.33;4.97;;;;;;;20.87;56.93;101691.25;4962049;28;20038;-70
2023/07/17 08:26:13;;;;;;;13.50;3.70;;;;;;;21.01;56.79;101687.72;4964961;28;20053;-70
2023/07/17 08:28:40;;;;;;;12.80;3.75;;;;;;;21.15;56.44;101689.53;4963692;28;20046;-69
2023/07/17 08:31:08;;;;;;;9.55;3.45;;;;;;;21.26;55.25;101692.41;4966009;28;20050;-70
2023/07/17 08:33:35;;;;;;;18.15;4.07;;;;;;;21.38;54.70;101685.41;4965488;28;20070;-70
2023/07/17 08:36:03;;;;;;;11.10;3.63;;;;;;;21.47;54.47;101689.34;4965825;28;20726;-70
2023/07/17 08:38:30;;;;;;;9.30;2.80;;;;;;;21.46;54.27;101696.56;4965091;28;20484;-68
2023/07/17 08:40:59;;;;;;;10.95;2.90;;;;;;;21.40;53.93;101692.44;4964878;28;20191;-70
2023/07/17 08:43:27;;;;;;;10.95;3.08;;;;;;;21.35;52.94;101688.31;4965037;28;20071;-70
2023/07/17 08:45:56;;;;;;;9.65;3.10;;;;;;;21.27;53.19;101696.84;4966431;28;20035;-70
2023/07/17 08:48:28;;;;;;;12.07;3.20;;;;;;;21.35;52.77;101691.84;4966562;28;20074;-70
2023/07/17 08:50:58;;;;;;;9.98;2.85;;;;;;;21.52;52.31;101693.47;4964721;28;20055;-70
2023/07/17 08:53:27;;;;;;;13.00;3.63;;;;;;;21.76;53.01;101692.91;4959629;28;20145;-70
2023/07/17 08:55:56;;;;;;;15.63;3.42;;;;;;;22.01;53.11;101704.72;4965124;28;20050;-70
2023/07/17 08:58:24;;;;;;;10.20;3.00;;;;;;;22.03;51.84;101692.91;4971829;28;20165;-70
2023/07/17 09:00:51;;;;;;;11.35;3.08;;;;;;;22.02;51.44;101693.03;4967354;28;20053;-71
2023/07/17 09:03:19;;;;;;;5.80;2.63;;;;;;;22.02;50.10;101709.13;4966209;28;20043;-70
2023/07/17 09:05:47;;;;;;;9.65;2.88;;;;;;;21.94;50.36;101700.72;4965135;28;20047;-70
2023/07/17 09:08:14;;;;;;;12.38;3.00;;;;;;;21.96;51.19;101701.47;4961453;28;20050;-70
2023/07/17 09:10:41;;;;;;;7.95;2.60;;;;;;;;;;4966148;28;20038;-70
2023/07/17 09:13:09;;;;;;;7.20;2.67;;;;;;;22.26;50.29;101701.28;4965338;28;20488;-72
2023/07/17 09:15:38;;;;;;;8.43;2.58;;;;;;;22.40;50.12;101699.50;4969130;28;20058;-71
2023/07/17 09:18:05;;;;;;;5.82;2.42;;;;;;;22.21;49.97;101699.84;4964498;28;20130;-71
2023/07/17 09:20:33;;;;;;;6.68;2.47;;;;;;;22.31;49.21;101704.53;4965547;28;20404;-70
2023/07/17 09:23:01;;;;;;;9.57;2.85;;;;;;;22.41;48.66;101696.72;4964769;28;20046;-71
2023/07/17 09:25:30;;;;;;;9.48;2.80;;;;;;;22.51;48.69;101706.84;4968528;28;20043;-71
2023/07/17 09:27:58;;;;;;;6.43;2.15;;;;;;;22.58;46.99;101710.88;4965906;28;20218;-69
2023/07/17 09:30:27;;;;;;;7.13;2.53;;;;;;;22.53;46.89;101703.13;4970249;28;20590;-69
2023/07/17 09:33:06;;;;;;;8.32;2.38;;;;;;;22.53;46.98;101695.06;4968386;28;20194;-70
2023/07/17 09:35:35;;;;;;;11.75;3.17;;;;;;;22.57;48.35;101701.09;4969490;28;20031;-70
2023/07/17 09:38:10;;;;;;;18.08;3.00;;;;;;;22.47;47.31;101703.53;4967533;28;20054;-72
2023/07/17 09:40:37;;;;;;;13.13;2.63;;;;;;;22.38;46.71;101702.31;4966162;28;20042;-71
2023/07/17 09:43:06;;;;;;;13.70;2.90;;;;;;;22.14;47.35;101705.66;4964680;28;20097;-69
2023/07/17 09:45:34;;;;;;;22.58;3.85;;;;;;;22.06;48.38;101707.97;4968319;28;20374;-70
2023/07/17 09:48:04;;;;;;;22.77;3.55;;;;;;;22.18;48.70;101701.78;4968518;28;20534;-70
2023/07/17 09:50:32;;;;;;;8.57;2.90;;;;;;;22.42;47.82;101703.84;4968379;28;20053;-70
2023/07/17 09:53:01;;;;;;;17.10;3.83;;;;;;;22.57;47.89;101710.00;4965111;28;20043;-70
2023/07/17 09:55:33;;;;;;;21.75;3.80;;;;;;;22.46;48.13;101708.03;4963274;28;20038;-71
2023/07/17 09:58:04;;;;;;;13.18;3.00;;;;;;;22.55;46.97;101703.00;4965092;28;20053;-70
2023/07/17 10:00:33;;;;;;;7.90;2.58;;;;;;;22.41;47.40;101709.31;4966629;28;20435;-70
2023/07/17 10:03:10;;;;;;;8.60;3.00;;;;;;;22.41;48.24;101715.53;4966562;28;20523;-71
2023/07/17 10:05:39;;;;;;;13.20;3.38;;;;;;;22.54;47.60;101707.50;4966684;28;20043;-71
2023/07/17 10:08:10;;;;;;;13.25;3.00;;;;;;;22.67;48.39;101707.56;4967368;28;20494;-71
2023/07/17 10:10:38;;;;;;;8.57;2.63;;;;;;;22.87;48.23;101705.34;4968820;28;20054;-71
2023/07/17 10:13:08;;;;;;;16.48;3.10;;;;;;;22.89;46.97;101706.94;4966142;28;20047;-71
2023/07/17 10:15:37;;;;;;;5.32;2.55;;;;;;;22.75;46.76;101705.22;4966902;28;20042;-71
2023/07/17 10:18:11;;;;;;;12.70;2.67;;;;;;;22.62;46.76;101715.94;4967610;28;20129;-71
2023/07/17 10:20:39;;;;;;;;;;;;;;;22.83;46.71;101711.88;4967932;28;20388;-71
2023/07/17 10:23:27;;;;;;;15.10;2.90;;;;;;;22.85;46.37;101708.09;4970609;28;19969;-72
2023/07/17 10:26:13;;;;;;;17.27;2.70;;;;;;;22.89;45.76;101711.47;4971301;28;20486;-71
2023/07/17 10:28:41;;;;;;;13.70;2.67;;;;;;;23.10;43.85;101703.72;4967409;28;20097;-70
2023/07/17 10:31:25;;;;;;;6.65;2.22;;;;;;;23.04;44.25;101706.84;4964418;28;20063;-71
2023/07/17 10:34:00;;;;;;;9.18;2.30;;;;;;;22.83;44.96;101714.56;4963675;28;20194;-70
2023/07/17 10:36:41;;;;;;;9.30;2.60;;;;;;;22.73;44.92;101709.81;4963488;28;20039;-70
2023/07/17 10:39:15;;;;;;;16.77;2.15;;;;;;;22.59;45.33;101701.81;4968933;28;20046;-71
2023/07/17 10:41:43;;;;;;;9.20;2.47;;;;;;;22.55;44.80;101711.91;4967924;28;20042;-70
2023/07/17 10:44:19;;;;;;;4.50;2.00;;;;;;;22.74;44.84;101700.78;4967836;28;20038;-69
2023/07/17 10:46:47;;;;;;;5.07;2.10;;;;;;;22.95;44.57;101703.81;4968698;28;20531;-70
2023/07/17 10:49:17;;;;;;;5.30;1.70;;;;;;;23.18;44.18;101695.97;4968530;28;20109;-70
2023/07/17 10:51:50;;;;;;;8.05;2.03;;;;;;;23.46;43.80;101693.19;4964811;28;20105;-70
2023/07/17 10:54:19;;;;;;;7.30;2.10;;;;;;;23.47;42.79;101695.75;4967896;28;20097;-70
2023/07/17 10:56:48;;;;;;;13.60;2.30;;;;;;;23.60;42.33;101703.81;4966725;28;20479;-69
2023/07/17 10:59:17;;;;;;;14.35;2.50;;;;;;;23.56;41.94;101710.38;4967598;28;20090;-70
2023/07/17 11:01:46;;;;;;;32.60;2.92;;;;;;;23.77;41.44;101699.03;4965538;28;20687;-71
2023/07/17 11:04:13;;;;;;;8.65;2.40;;;;;;;23.86;41.31;101701.06;4968689;28;20563;-70
2023/07/17 11:06:40;;;;;;;8.63;2.00;;;;;;;23.68;41.64;101701.44;4968359;28;20550;-70
2023/07/17 11:09:08;;;;;;;6.93;2.10;;;;;;;23.71;40.01;101703.88;4969617;28;20735;-69
2023/07/17 11:11:35;;;;;;;10.30;2.00;;;;;;;23.69;40.85;101711.22;4969243;28;20126;-70
2023/07/17 11:14:04;;;;;;;8.38;2.10;;;;;;;23.95;39.97;101707.63;4968173;28;20039;-70
2023/07/17 11:16:33;;;;;;;6.70;2.05;;;;;;;24.28;39.40;101706.97;4969439;28;20038;-71
2023/07/17 11:19:04;;;;;;;9.52;2.00;;;;;;;24.60;39.59;101692.88;4966492;28;20518;-71
2023/07/17 11:21:32;;;;;;;26.65;3.10;;;;;;;24.76;38.65;101694.41;4966843;28;20133;-72
2023/07/17 11:24:01;;;;;;;17.33;2.22;;;;;;;24.69;38.22;101696.72;4965970;28;20058;-71
2023/07/17 11:26:34;;;;;;;22.30;3.47;;;;;;;24.62;38.76;101692.75;4963967;28;20055;-71